sensor_id;sensor_type;location;lat;lon;timestamp;temperature;humidity
9006;DHT22;62284;50.702;7.140;2022-11-21T00:00:48;8.80;99.90
9006;DHT22;62284;50.702;7.140;2022-11-21T00:03:15;8.90;99.90
9006;DHT22;62284;50.702;7.140;2022-11-21T00:05:46;8.90;99.90
9006;DHT22;62284;50.702;7.140;2022-11-21T00:08:14;8.80;99.90
9006;DHT22;62284;50.702;7.140;2022-11-21T00:10:42;8.80;99.90
9006;DHT22;62284;50.702;7.140;2022-11-21T00:13:12;8.80;99.90
9006;DHT22;62284;50.702;7.140;2022-11-21T00:15:39;8.70;99.90
9006;DHT22;62284;50.702;7.140;2022-11-21T00:18:06;8.70;99.90
9006;DHT22;62284;50.702;7.140;2022-11-21T00:20:33;8.70;99.90
9006;DHT22;62284;50.702;7.140;2022-11-21T00:23:03;8.70;99.90
9006;DHT22;62284;50.702;7.140;2022-11-21T00:25:30;8.70;99.90
9006;DHT22;62284;50.702;7.140;2022-11-21T00:27:57;8.80;99.90
9006;DHT22;62284;50.702;7.140;2022-11-21T00:30:24;8.80;99.90
9006;DHT22;62284;50.702;7.140;2022-11-21T00:32:51;8.80;99.90
9006;DHT22;62284;50.702;7.140;2022-11-21T00:35:18;8.80;99.90
9006;DHT22;62284;50.702;7.140;2022-11-21T00:37:44;8.90;99.90
9006;DHT22;62284;50.702;7.140;2022-11-21T00:40:14;8.80;99.90
9006;DHT22;62284;50.702;7.140;2022-11-21T00:42:41;8.80;99.90
9006;DHT22;62284;50.702;7.140;2022-11-21T00:45:09;8.80;99.90
9006;DHT22;62284;50.702;7.140;2022-11-21T00:47:36;8.80;99.90
9006;DHT22;62284;50.702;7.140;2022-11-21T00:50:03;8.80;99.90
9006;DHT22;62284;50.702;7.140;2022-11-21T00:52:30;8.80;99.90
9006;DHT22;62284;50.702;7.140;2022-11-21T00:54:57;8.90;99.90
9006;DHT22;62284;50.702;7.140;2022-11-21T00:57:25;8.80;99.90
9006;DHT22;62284;50.702;7.140;2022-11-21T00:59:52;8.80;99.90
9006;DHT22;62284;50.702;7.140;2022-11-21T01:02:19;8.80;99.90
9006;DHT22;62284;50.702;7.140;2022-11-21T01:04:46;8.80;99.90
9006;DHT22;62284;50.702;7.140;2022-11-21T01:07:13;8.80;99.90
9006;DHT22;62284;50.702;7.140;2022-11-21T01:09:40;8.80;99.90
9006;DHT22;62284;50.702;7.140;2022-11-21T01:12:07;8.80;99.90
9006;DHT22;62284;50.702;7.140;2022-11-21T01:14:35;8.80;99.90
9006;DHT22;62284;50.702;7.140;2022-11-21T01:17:02;8.80;99.90
9006;DHT22;62284;50.702;7.140;2022-11-21T01:19:29;8.80;99.90
9006;DHT22;62284;50.702;7.140;2022-11-21T01:21:55;8.70;99.90
9006;DHT22;62284;50.702;7.140;2022-11-21T01:24:22;8.60;99.90
9006;DHT22;62284;50.702;7.140;2022-11-21T01:26:49;8.50;99.90
9006;DHT22;62284;50.702;7.140;2022-11-21T01:29:18;8.50;99.90
9006;DHT22;62284;50.702;7.140;2022-11-21T01:31:46;8.40;99.90
9006;DHT22;62284;50.702;7.140;2022-11-21T01:34:14;8.40;99.90
9006;DHT22;62284;50.702;7.140;2022-11-21T01:36:41;8.30;99.90
9006;DHT22;62284;50.702;7.140;2022-11-21T01:39:10;8.30;99.90
9006;DHT22;62284;50.702;7.140;2022-11-21T01:41:39;8.30;99.90
9006;DHT22;62284;50.702;7.140;2022-11-21T01:44:15;8.40;99.90
9006;DHT22;62284;50.702;7.140;2022-11-21T01:46:43;8.40;99.90
9006;DHT22;62284;50.702;7.140;2022-11-21T01:49:14;8.40;99.90
9006;DHT22;62284;50.702;7.140;2022-11-21T01:51:47;8.40;99.90
9006;DHT22;62284;50.702;7.140;2022-11-21T01:54:19;8.40;99.90
9006;DHT22;62284;50.702;7.140;2022-11-21T01:56:52;8.40;99.90
9006;DHT22;62284;50.702;7.140;2022-11-21T01:59:26;8.40;99.90
9006;DHT22;62284;50.702;7.140;2022-11-21T02:01:54;8.30;99.90
9006;DHT22;62284;50.702;7.140;2022-11-21T02:04:25;8.30;99.90
9006;DHT22;62284;50.702;7.140;2022-11-21T02:06:53;8.30;99.90
9006;DHT22;62284;50.702;7.140;2022-11-21T02:09:21;8.30;99.90
9006;DHT22;62284;50.702;7.140;2022-11-21T02:11:51;8.30;99.90
9006;DHT22;62284;50.702;7.140;2022-11-21T02:14:20;8.40;99.90
9006;DHT22;62284;50.702;7.140;2022-11-21T02:16:46;8.40;99.90
9006;DHT22;62284;50.702;7.140;2022-11-21T02:19:19;8.40;99.90
9006;DHT22;62284;50.702;7.140;2022-11-21T02:21:54;8.50;99.90
9006;DHT22;62284;50.702;7.140;2022-11-21T02:24:27;8.40;99.90
9006;DHT22;62284;50.702;7.140;2022-11-21T02:26:57;8.50;99.90
9006;DHT22;62284;50.702;7.140;2022-11-21T02:29:25;8.40;99.90
9006;DHT22;62284;50.702;7.140;2022-11-21T02:31:52;8.40;99.90
9006;DHT22;62284;50.702;7.140;2022-11-21T02:34:18;8.30;99.90
9006;DHT22;62284;50.702;7.140;2022-11-21T02:36:46;8.30;99.90
9006;DHT22;62284;50.702;7.140;2022-11-21T02:39:18;8.30;99.90
9006;DHT22;62284;50.702;7.140;2022-11-21T02:41:53;8.30;99.90
9006;DHT22;62284;50.702;7.140;2022-11-21T02:44:26;8.30;99.90
9006;DHT22;62284;50.702;7.140;2022-11-21T02:46:55;8.20;99.90
9006;DHT22;62284;50.702;7.140;2022-11-21T02:49:29;8.20;99.90
9006;DHT22;62284;50.702;7.140;2022-11-21T02:51:59;8.20;99.90
9006;DHT22;62284;50.702;7.140;2022-11-21T02:54:26;8.20;99.90
9006;DHT22;62284;50.702;7.140;2022-11-21T02:56:53;8.10;99.90
9006;DHT22;62284;50.702;7.140;2022-11-21T02:59:20;8.20;99.90
9006;DHT22;62284;50.702;7.140;2022-11-21T03:01:48;8.20;99.90
9006;DHT22;62284;50.702;7.140;2022-11-21T03:04:15;8.20;99.90
9006;DHT22;62284;50.702;7.140;2022-11-21T03:06:41;8.30;99.90
9006;DHT22;62284;50.702;7.140;2022-11-21T03:09:08;8.30;99.90
9006;DHT22;62284;50.702;7.140;2022-11-21T03:11:37;8.30;99.90
9006;DHT22;62284;50.702;7.140;2022-11-21T03:14:04;8.30;99.90
9006;DHT22;62284;50.702;7.140;2022-11-21T03:16:30;8.30;99.90
9006;DHT22;62284;50.702;7.140;2022-11-21T03:18:58;8.30;99.90
9006;DHT22;62284;50.702;7.140;2022-11-21T03:21:25;8.40;99.90
9006;DHT22;62284;50.702;7.140;2022-11-21T03:23:52;8.30;99.90
9006;DHT22;62284;50.702;7.140;2022-11-21T03:26:19;8.30;99.90
9006;DHT22;62284;50.702;7.140;2022-11-21T03:28:46;8.20;99.90
9006;DHT22;62284;50.702;7.140;2022-11-21T03:31:12;8.20;99.90
9006;DHT22;62284;50.702;7.140;2022-11-21T03:33:39;8.20;99.90
9006;DHT22;62284;50.702;7.140;2022-11-21T03:36:07;8.20;99.90
9006;DHT22;62284;50.702;7.140;2022-11-21T03:38:34;8.20;99.90
9006;DHT22;62284;50.702;7.140;2022-11-21T03:41:03;8.20;99.90
9006;DHT22;62284;50.702;7.140;2022-11-21T03:43:30;8.20;99.90
9006;DHT22;62284;50.702;7.140;2022-11-21T03:45:57;8.30;99.90
9006;DHT22;62284;50.702;7.140;2022-11-21T03:48:24;8.20;99.90
9006;DHT22;62284;50.702;7.140;2022-11-21T03:50:51;8.20;99.90
9006;DHT22;62284;50.702;7.140;2022-11-21T03:53:19;8.20;99.90
9006;DHT22;62284;50.702;7.140;2022-11-21T03:55:46;8.20;99.90
9006;DHT22;62284;50.702;7.140;2022-11-21T03:58:13;8.20;99.90
9006;DHT22;62284;50.702;7.140;2022-11-21T04:00:40;8.20;99.90
9006;DHT22;62284;50.702;7.140;2022-11-21T04:03:06;8.20;99.90
9006;DHT22;62284;50.702;7.140;2022-11-21T04:05:33;8.30;99.90
9006;DHT22;62284;50.702;7.140;2022-11-21T04:08:00;8.30;99.90
9006;DHT22;62284;50.702;7.140;2022-11-21T04:10:28;8.30;99.90
9006;DHT22;62284;50.702;7.140;2022-11-21T04:12:55;8.30;99.90
9006;DHT22;62284;50.702;7.140;2022-11-21T04:15:22;8.20;99.90
9006;DHT22;62284;50.702;7.140;2022-11-21T04:17:49;8.10;99.90
9006;DHT22;62284;50.702;7.140;2022-11-21T04:20:16;8.00;99.90
9006;DHT22;62284;50.702;7.140;2022-11-21T04:22:42;8.00;99.90
9006;DHT22;62284;50.702;7.140;2022-11-21T04:25:09;8.00;99.90
9006;DHT22;62284;50.702;7.140;2022-11-21T04:27:39;7.90;99.90
9006;DHT22;62284;50.702;7.140;2022-11-21T04:30:07;7.90;99.90
9006;DHT22;62284;50.702;7.140;2022-11-21T04:32:34;7.90;99.90
9006;DHT22;62284;50.702;7.140;2022-11-21T04:35:00;7.90;99.90
9006;DHT22;62284;50.702;7.140;2022-11-21T04:37:27;7.90;99.90
9006;DHT22;62284;50.702;7.140;2022-11-21T04:39:54;7.80;99.90
9006;DHT22;62284;50.702;7.140;2022-11-21T04:42:21;7.90;99.90
9006;DHT22;62284;50.702;7.140;2022-11-21T04:44:49;7.80;99.90
9006;DHT22;62284;50.702;7.140;2022-11-21T04:47:16;7.80;99.90
9006;DHT22;62284;50.702;7.140;2022-11-21T04:49:43;7.80;99.90
9006;DHT22;62284;50.702;7.140;2022-11-21T04:52:09;7.70;99.90
9006;DHT22;62284;50.702;7.140;2022-11-21T04:54:37;7.70;99.90
9006;DHT22;62284;50.702;7.140;2022-11-21T04:57:04;7.80;99.90
9006;DHT22;62284;50.702;7.140;2022-11-21T04:59:30;7.80;99.90
9006;DHT22;62284;50.702;7.140;2022-11-21T05:01:59;7.80;99.90
9006;DHT22;62284;50.702;7.140;2022-11-21T05:04:25;7.80;99.90
9006;DHT22;62284;50.702;7.140;2022-11-21T05:06:52;7.70;99.90
9006;DHT22;62284;50.702;7.140;2022-11-21T05:09:19;7.80;99.90
9006;DHT22;62284;50.702;7.140;2022-11-21T05:11:46;7.70;99.90
9006;DHT22;62284;50.702;7.140;2022-11-21T05:14:30;7.80;99.90
9006;DHT22;62284;50.702;7.140;2022-11-21T05:16:58;7.70;99.90
9006;DHT22;62284;50.702;7.140;2022-11-21T05:19:25;7.80;99.90
9006;DHT22;62284;50.702;7.140;2022-11-21T05:21:52;7.80;99.90
9006;DHT22;62284;50.702;7.140;2022-11-21T05:24:19;7.80;99.90
9006;DHT22;62284;50.702;7.140;2022-11-21T05:26:46;7.80;99.90
9006;DHT22;62284;50.702;7.140;2022-11-21T05:29:12;7.70;99.90
9006;DHT22;62284;50.702;7.140;2022-11-21T05:31:39;7.80;99.90
9006;DHT22;62284;50.702;7.140;2022-11-21T05:34:07;7.80;99.90
9006;DHT22;62284;50.702;7.140;2022-11-21T05:36:34;7.70;99.90
9006;DHT22;62284;50.702;7.140;2022-11-21T05:39:01;7.70;99.90
9006;DHT22;62284;50.702;7.140;2022-11-21T05:41:28;7.70;99.90
9006;DHT22;62284;50.702;7.140;2022-11-21T05:43:55;7.70;99.90
9006;DHT22;62284;50.702;7.140;2022-11-21T05:46:24;7.60;99.90
9006;DHT22;62284;50.702;7.140;2022-11-21T05:48:53;7.60;99.90
9006;DHT22;62284;50.702;7.140;2022-11-21T05:51:21;7.60;99.90
9006;DHT22;62284;50.702;7.140;2022-11-21T05:53:48;7.60;99.90
9006;DHT22;62284;50.702;7.140;2022-11-21T05:56:17;7.60;99.90
9006;DHT22;62284;50.702;7.140;2022-11-21T05:58:44;7.70;99.90
9006;DHT22;62284;50.702;7.140;2022-11-21T06:01:12;7.70;99.90
9006;DHT22;62284;50.702;7.140;2022-11-21T06:03:41;7.70;99.90
9006;DHT22;62284;50.702;7.140;2022-11-21T06:06:08;7.80;99.90
9006;DHT22;62284;50.702;7.140;2022-11-21T06:08:38;7.80;99.90
9006;DHT22;62284;50.702;7.140;2022-11-21T06:11:06;7.80;99.90
9006;DHT22;62284;50.702;7.140;2022-11-21T06:13:34;7.90;99.90
9006;DHT22;62284;50.702;7.140;2022-11-21T06:16:02;7.90;99.90
9006;DHT22;62284;50.702;7.140;2022-11-21T06:18:31;7.90;99.90
9006;DHT22;62284;50.702;7.140;2022-11-21T06:21:02;8.00;99.90
9006;DHT22;62284;50.702;7.140;2022-11-21T06:23:29;8.00;99.90
9006;DHT22;62284;50.702;7.140;2022-11-21T06:25:58;7.90;99.90
9006;DHT22;62284;50.702;7.140;2022-11-21T06:28:25;7.90;99.90
9006;DHT22;62284;50.702;7.140;2022-11-21T06:30:53;7.80;99.90
9006;DHT22;62284;50.702;7.140;2022-11-21T06:33:19;7.80;99.90
9006;DHT22;62284;50.702;7.140;2022-11-21T06:35:46;7.80;99.90
9006;DHT22;62284;50.702;7.140;2022-11-21T06:38:13;7.70;99.90
9006;DHT22;62284;50.702;7.140;2022-11-21T06:40:43;7.70;99.90
9006;DHT22;62284;50.702;7.140;2022-11-21T06:43:11;7.60;99.90
9006;DHT22;62284;50.702;7.140;2022-11-21T06:45:38;7.60;99.90
9006;DHT22;62284;50.702;7.140;2022-11-21T06:48:05;7.60;99.90
9006;DHT22;62284;50.702;7.140;2022-11-21T06:50:32;7.70;99.90
9006;DHT22;62284;50.702;7.140;2022-11-21T06:52:59;7.60;99.90
9006;DHT22;62284;50.702;7.140;2022-11-21T06:55:26;7.60;99.90
9006;DHT22;62284;50.702;7.140;2022-11-21T06:57:56;7.70;99.90
9006;DHT22;62284;50.702;7.140;2022-11-21T07:00:25;7.80;99.90
9006;DHT22;62284;50.702;7.140;2022-11-21T07:02:52;7.80;99.90
9006;DHT22;62284;50.702;7.140;2022-11-21T07:05:19;7.80;99.90
9006;DHT22;62284;50.702;7.140;2022-11-21T07:07:46;7.90;99.90
9006;DHT22;62284;50.702;7.140;2022-11-21T07:10:13;7.90;99.90
9006;DHT22;62284;50.702;7.140;2022-11-21T07:12:40;7.90;99.90
9006;DHT22;62284;50.702;7.140;2022-11-21T07:15:26;7.90;99.90
9006;DHT22;62284;50.702;7.140;2022-11-21T07:17:53;7.80;99.90
9006;DHT22;62284;50.702;7.140;2022-11-21T07:20:20;7.80;99.90
9006;DHT22;62284;50.702;7.140;2022-11-21T07:22:47;7.90;99.90
9006;DHT22;62284;50.702;7.140;2022-11-21T07:25:13;7.90;99.90
9006;DHT22;62284;50.702;7.140;2022-11-21T07:27:40;7.80;99.90
9006;DHT22;62284;50.702;7.140;2022-11-21T07:30:08;7.80;99.90
9006;DHT22;62284;50.702;7.140;2022-11-21T07:32:37;7.70;99.90
9006;DHT22;62284;50.702;7.140;2022-11-21T07:35:04;7.70;99.90
9006;DHT22;62284;50.702;7.140;2022-11-21T07:37:31;7.70;99.90
9006;DHT22;62284;50.702;7.140;2022-11-21T07:39:58;7.70;99.90
9006;DHT22;62284;50.702;7.140;2022-11-21T07:42:25;7.70;99.90
9006;DHT22;62284;50.702;7.140;2022-11-21T07:44:51;7.80;99.90
9006;DHT22;62284;50.702;7.140;2022-11-21T07:47:18;7.90;99.90
9006;DHT22;62284;50.702;7.140;2022-11-21T07:49:46;7.90;99.90
9006;DHT22;62284;50.702;7.140;2022-11-21T07:52:13;8.00;99.90
9006;DHT22;62284;50.702;7.140;2022-11-21T07:54:40;8.10;99.90
9006;DHT22;62284;50.702;7.140;2022-11-21T07:57:07;8.10;99.90
9006;DHT22;62284;50.702;7.140;2022-11-21T07:59:34;8.10;99.90
9006;DHT22;62284;50.702;7.140;2022-11-21T08:02:01;8.10;99.90
9006;DHT22;62284;50.702;7.140;2022-11-21T08:04:28;8.20;99.90
9006;DHT22;62284;50.702;7.140;2022-11-21T08:06:57;8.30;99.90
9006;DHT22;62284;50.702;7.140;2022-11-21T08:09:27;8.30;99.90
9006;DHT22;62284;50.702;7.140;2022-11-21T08:11:54;8.40;99.90
9006;DHT22;62284;50.702;7.140;2022-11-21T08:14:21;8.40;99.90
9006;DHT22;62284;50.702;7.140;2022-11-21T08:16:50;8.50;99.90
9006;DHT22;62284;50.702;7.140;2022-11-21T08:19:17;8.50;99.90
9006;DHT22;62284;50.702;7.140;2022-11-21T08:21:44;8.50;99.90
9006;DHT22;62284;50.702;7.140;2022-11-21T08:24:12;8.50;99.90
9006;DHT22;62284;50.702;7.140;2022-11-21T08:26:42;8.40;99.90
9006;DHT22;62284;50.702;7.140;2022-11-21T08:29:09;8.50;99.90
9006;DHT22;62284;50.702;7.140;2022-11-21T08:31:36;8.50;99.90
9006;DHT22;62284;50.702;7.140;2022-11-21T08:34:03;8.40;99.90
9006;DHT22;62284;50.702;7.140;2022-11-21T08:36:30;8.40;99.90
9006;DHT22;62284;50.702;7.140;2022-11-21T08:38:57;8.50;99.90
9006;DHT22;62284;50.702;7.140;2022-11-21T08:41:25;8.40;99.90
9006;DHT22;62284;50.702;7.140;2022-11-21T08:44:10;8.50;99.90
9006;DHT22;62284;50.702;7.140;2022-11-21T08:46:37;8.40;99.90
9006;DHT22;62284;50.702;7.140;2022-11-21T08:49:04;8.50;99.90
9006;DHT22;62284;50.702;7.140;2022-11-21T08:51:31;8.50;99.90
9006;DHT22;62284;50.702;7.140;2022-11-21T08:53:58;8.60;99.90
9006;DHT22;62284;50.702;7.140;2022-11-21T08:56:26;8.70;99.90
9006;DHT22;62284;50.702;7.140;2022-11-21T08:58:54;8.80;99.90
9006;DHT22;62284;50.702;7.140;2022-11-21T09:01:21;8.80;99.90
9006;DHT22;62284;50.702;7.140;2022-11-21T09:03:48;8.80;99.90
9006;DHT22;62284;50.702;7.140;2022-11-21T09:06:15;8.90;99.90
9006;DHT22;62284;50.702;7.140;2022-11-21T09:08:42;9.00;99.90
9006;DHT22;62284;50.702;7.140;2022-11-21T09:11:09;9.20;99.90
9006;DHT22;62284;50.702;7.140;2022-11-21T09:13:37;9.40;99.90
9006;DHT22;62284;50.702;7.140;2022-11-21T09:16:04;9.50;99.90
9006;DHT22;62284;50.702;7.140;2022-11-21T09:18:51;9.60;99.90
9006;DHT22;62284;50.702;7.140;2022-11-21T09:21:19;9.60;99.90
9006;DHT22;62284;50.702;7.140;2022-11-21T09:23:46;9.80;99.90
9006;DHT22;62284;50.702;7.140;2022-11-21T09:26:13;10.20;99.90
9006;DHT22;62284;50.702;7.140;2022-11-21T09:28:41;10.90;99.70
9006;DHT22;62284;50.702;7.140;2022-11-21T09:31:08;11.50;99.00
9006;DHT22;62284;50.702;7.140;2022-11-21T09:33:35;12.40;97.80
9006;DHT22;62284;50.702;7.140;2022-11-21T09:36:03;13.60;95.50
9006;DHT22;62284;50.702;7.140;2022-11-21T09:38:30;14.50;92.10
9006;DHT22;62284;50.702;7.140;2022-11-21T09:41:07;15.00;90.10
9006;DHT22;62284;50.702;7.140;2022-11-21T09:44:03;16.10;86.40
9006;DHT22;62284;50.702;7.140;2022-11-21T09:46:36;16.90;77.00
9006;DHT22;62284;50.702;7.140;2022-11-21T09:49:08;16.80;75.10
9006;DHT22;62284;50.702;7.140;2022-11-21T09:51:39;16.90;73.90
9006;DHT22;62284;50.702;7.140;2022-11-21T09:54:14;17.00;73.40
9006;DHT22;62284;50.702;7.140;2022-11-21T09:56:42;17.70;73.40
9006;DHT22;62284;50.702;7.140;2022-11-21T09:59:24;18.40;68.30
9006;DHT22;62284;50.702;7.140;2022-11-21T10:01:55;17.90;65.00
9006;DHT22;62284;50.702;7.140;2022-11-21T10:04:22;16.30;71.20
9006;DHT22;62284;50.702;7.140;2022-11-21T10:06:56;15.90;73.60
9006;DHT22;62284;50.702;7.140;2022-11-21T10:09:42;15.00;75.50
9006;DHT22;62284;50.702;7.140;2022-11-21T10:12:18;13.70;80.80
9006;DHT22;62284;50.702;7.140;2022-11-21T10:15:25;12.20;87.10
9006;DHT22;62284;50.702;7.140;2022-11-21T10:18:05;12.20;90.40
9006;DHT22;62284;50.702;7.140;2022-11-21T10:20:49;12.70;91.40
9006;DHT22;62284;50.702;7.140;2022-11-21T10:26:22;17.90;70.50
9006;DHT22;62284;50.702;7.140;2022-11-21T10:28:57;19.20;64.70
9006;DHT22;62284;50.702;7.140;2022-11-21T10:31:28;18.60;58.00
9006;DHT22;62284;50.702;7.140;2022-11-21T10:33:58;17.60;60.30
9006;DHT22;62284;50.702;7.140;2022-11-21T10:36:29;17.70;63.10
9006;DHT22;62284;50.702;7.140;2022-11-21T10:39:00;19.40;57.10
9006;DHT22;62284;50.702;7.140;2022-11-21T10:41:39;20.10;52.60
9006;DHT22;62284;50.702;7.140;2022-11-21T10:44:20;21.20;52.00
9006;DHT22;62284;50.702;7.140;2022-11-21T10:47:15;20.10;51.20
9006;DHT22;62284;50.702;7.140;2022-11-21T10:49:56;17.80;52.60
9006;DHT22;62284;50.702;7.140;2022-11-21T10:52:25;17.10;56.20
9006;DHT22;62284;50.702;7.140;2022-11-21T10:55:07;17.60;58.50
9006;DHT22;62284;50.702;7.140;2022-11-21T10:57:42;19.20;53.60
9006;DHT22;62284;50.702;7.140;2022-11-21T11:00:18;19.30;52.20
9006;DHT22;62284;50.702;7.140;2022-11-21T11:03:05;17.40;53.10
9006;DHT22;62284;50.702;7.140;2022-11-21T11:05:34;18.00;54.00
9006;DHT22;62284;50.702;7.140;2022-11-21T11:08:04;19.00;53.80
9006;DHT22;62284;50.702;7.140;2022-11-21T11:10:33;20.00;50.80
9006;DHT22;62284;50.702;7.140;2022-11-21T11:13:01;18.50;51.70
9006;DHT22;62284;50.702;7.140;2022-11-21T11:16:01;16.80;53.20
9006;DHT22;62284;50.702;7.140;2022-11-21T11:18:30;15.70;58.50
9006;DHT22;62284;50.702;7.140;2022-11-21T11:21:15;15.30;58.80
9006;DHT22;62284;50.702;7.140;2022-11-21T11:23:42;14.90;60.30
9006;DHT22;62284;50.702;7.140;2022-11-21T11:26:27;15.90;60.60
9006;DHT22;62284;50.702;7.140;2022-11-21T11:29:08;16.30;57.50
9006;DHT22;62284;50.702;7.140;2022-11-21T11:31:42;17.20;56.50
9006;DHT22;62284;50.702;7.140;2022-11-21T11:34:17;19.30;54.90
9006;DHT22;62284;50.702;7.140;2022-11-21T11:36:55;19.60;51.10
9006;DHT22;62284;50.702;7.140;2022-11-21T11:39:37;20.20;51.80
9006;DHT22;62284;50.702;7.140;2022-11-21T11:42:28;19.80;47.10
9006;DHT22;62284;50.702;7.140;2022-11-21T11:48:22;17.00;54.10
9006;DHT22;62284;50.702;7.140;2022-11-21T11:50:52;15.70;55.20
9006;DHT22;62284;50.702;7.140;2022-11-21T11:53:23;15.20;56.90
9006;DHT22;62284;50.702;7.140;2022-11-21T11:55:54;15.50;56.80
9006;DHT22;62284;50.702;7.140;2022-11-21T11:58:26;16.80;54.90
9006;DHT22;62284;50.702;7.140;2022-11-21T12:01:01;18.30;53.20
9006;DHT22;62284;50.702;7.140;2022-11-21T12:03:38;19.40;49.60
9006;DHT22;62284;50.702;7.140;2022-11-21T12:06:14;19.80;47.90
9006;DHT22;62284;50.702;7.140;2022-11-21T12:08:47;19.20;48.30
9006;DHT22;62284;50.702;7.140;2022-11-21T12:11:25;18.80;49.50
9006;DHT22;62284;50.702;7.140;2022-11-21T12:14:19;18.90;48.00
9006;DHT22;62284;50.702;7.140;2022-11-21T12:17:04;19.60;49.10
9006;DHT22;62284;50.702;7.140;2022-11-21T12:19:33;20.40;46.10
9006;DHT22;62284;50.702;7.140;2022-11-21T12:22:02;20.90;45.30
9006;DHT22;62284;50.702;7.140;2022-11-21T12:24:31;21.20;45.90
9006;DHT22;62284;50.702;7.140;2022-11-21T12:27:03;20.40;44.70
9006;DHT22;62284;50.702;7.140;2022-11-21T12:29:44;20.30;44.60
9006;DHT22;62284;50.702;7.140;2022-11-21T12:32:32;20.10;45.10
9006;DHT22;62284;50.702;7.140;2022-11-21T12:35:30;19.80;45.50
9006;DHT22;62284;50.702;7.140;2022-11-21T12:38:12;19.80;45.30
9006;DHT22;62284;50.702;7.140;2022-11-21T12:40:47;19.10;46.40
9006;DHT22;62284;50.702;7.140;2022-11-21T12:43:23;17.70;47.40
9006;DHT22;62284;50.702;7.140;2022-11-21T12:45:56;17.00;49.30
9006;DHT22;62284;50.702;7.140;2022-11-21T12:48:39;16.80;50.20
9006;DHT22;62284;50.702;7.140;2022-11-21T12:55:06;17.40;49.70
9006;DHT22;62284;50.702;7.140;2022-11-21T12:57:55;16.70;50.50
9006;DHT22;62284;50.702;7.140;2022-11-21T13:00:33;16.70;50.30
9006;DHT22;62284;50.702;7.140;2022-11-21T13:03:21;17.00;50.40
9006;DHT22;62284;50.702;7.140;2022-11-21T13:05:51;16.80;50.90
9006;DHT22;62284;50.702;7.140;2022-11-21T13:08:22;16.30;51.00
9006;DHT22;62284;50.702;7.140;2022-11-21T13:10:56;15.40;52.50
9006;DHT22;62284;50.702;7.140;2022-11-21T13:13:45;14.90;52.90
9006;DHT22;62284;50.702;7.140;2022-11-21T13:16:17;14.40;53.80
9006;DHT22;62284;50.702;7.140;2022-11-21T13:19:03;13.90;54.80
9006;DHT22;62284;50.702;7.140;2022-11-21T13:21:39;13.10;56.10
9006;DHT22;62284;50.702;7.140;2022-11-21T13:24:07;13.10;56.80
9006;DHT22;62284;50.702;7.140;2022-11-21T13:26:51;13.10;57.40
9006;DHT22;62284;50.702;7.140;2022-11-21T13:29:19;13.10;57.90
9006;DHT22;62284;50.702;7.140;2022-11-21T13:31:45;12.90;57.80
9006;DHT22;62284;50.702;7.140;2022-11-21T13:34:34;13.10;59.00
9006;DHT22;62284;50.702;7.140;2022-11-21T13:37:01;12.90;58.00
9006;DHT22;62284;50.702;7.140;2022-11-21T13:39:30;12.60;59.30
9006;DHT22;62284;50.702;7.140;2022-11-21T13:42:00;12.70;61.00
9006;DHT22;62284;50.702;7.140;2022-11-21T13:44:44;13.10;59.80
9006;DHT22;62284;50.702;7.140;2022-11-21T13:47:37;13.00;59.00
9006;DHT22;62284;50.702;7.140;2022-11-21T13:50:13;13.00;59.40
9006;DHT22;62284;50.702;7.140;2022-11-21T13:52:45;13.10;59.90
9006;DHT22;62284;50.702;7.140;2022-11-21T13:55:38;13.20;59.70
9006;DHT22;62284;50.702;7.140;2022-11-21T13:58:18;13.20;60.60
9006;DHT22;62284;50.702;7.140;2022-11-21T14:06:46;12.50;64.10
9006;DHT22;62284;50.702;7.140;2022-11-21T14:09:28;12.50;64.80
9006;DHT22;62284;50.702;7.140;2022-11-21T14:11:59;12.50;66.00
9006;DHT22;62284;50.702;7.140;2022-11-21T14:14:32;12.50;66.30
9006;DHT22;62284;50.702;7.140;2022-11-21T14:17:19;12.50;66.50
9006;DHT22;62284;50.702;7.140;2022-11-21T14:19:50;12.50;67.10
9006;DHT22;62284;50.702;7.140;2022-11-21T14:22:25;12.30;68.50
9006;DHT22;62284;50.702;7.140;2022-11-21T14:24:53;12.30;68.30
9006;DHT22;62284;50.702;7.140;2022-11-21T14:27:26;12.20;68.50
9006;DHT22;62284;50.702;7.140;2022-11-21T14:29:55;12.10;69.40
9006;DHT22;62284;50.702;7.140;2022-11-21T14:32:26;11.90;70.20
9006;DHT22;62284;50.702;7.140;2022-11-21T14:35:06;11.80;71.40
9006;DHT22;62284;50.702;7.140;2022-11-21T14:37:34;11.90;71.00
9006;DHT22;62284;50.702;7.140;2022-11-21T14:40:02;11.60;73.40
9006;DHT22;62284;50.702;7.140;2022-11-21T14:42:34;11.60;74.20
9006;DHT22;62284;50.702;7.140;2022-11-21T14:45:15;11.40;74.90
9006;DHT22;62284;50.702;7.140;2022-11-21T14:47:48;11.30;76.30
9006;DHT22;62284;50.702;7.140;2022-11-21T14:50:23;11.10;77.90
9006;DHT22;62284;50.702;7.140;2022-11-21T14:52:50;11.00;80.00
9006;DHT22;62284;50.702;7.140;2022-11-21T14:55:24;10.90;81.80
9006;DHT22;62284;50.702;7.140;2022-11-21T14:57:52;11.00;81.30
9006;DHT22;62284;50.702;7.140;2022-11-21T15:00:22;10.90;81.80
9006;DHT22;62284;50.702;7.140;2022-11-21T15:02:52;10.90;83.90
9006;DHT22;62284;50.702;7.140;2022-11-21T15:05:19;10.80;84.30
9006;DHT22;62284;50.702;7.140;2022-11-21T15:07:48;10.70;86.50
9006;DHT22;62284;50.702;7.140;2022-11-21T15:10:16;10.70;86.90
9006;DHT22;62284;50.702;7.140;2022-11-21T15:12:48;10.60;88.00
9006;DHT22;62284;50.702;7.140;2022-11-21T15:15:25;10.60;88.80
9006;DHT22;62284;50.702;7.140;2022-11-21T15:17:55;10.40;90.50
9006;DHT22;62284;50.702;7.140;2022-11-21T15:20:23;10.40;91.10
9006;DHT22;62284;50.702;7.140;2022-11-21T15:22:54;10.20;91.70
9006;DHT22;62284;50.702;7.140;2022-11-21T15:25:23;10.20;92.10
9006;DHT22;62284;50.702;7.140;2022-11-21T15:27:51;10.10;92.40
9006;DHT22;62284;50.702;7.140;2022-11-21T15:30:31;10.00;93.20
9006;DHT22;62284;50.702;7.140;2022-11-21T15:33:03;10.00;93.60
9006;DHT22;62284;50.702;7.140;2022-11-21T15:35:48;10.00;94.00
9006;DHT22;62284;50.702;7.140;2022-11-21T15:38:22;9.90;95.00
9006;DHT22;62284;50.702;7.140;2022-11-21T15:41:26;9.90;95.20
9006;DHT22;62284;50.702;7.140;2022-11-21T15:43:55;9.70;95.70
9006;DHT22;62284;50.702;7.140;2022-11-21T15:46:25;9.70;96.20
9006;DHT22;62284;50.702;7.140;2022-11-21T15:48:53;9.70;96.70
9006;DHT22;62284;50.702;7.140;2022-11-21T15:51:21;9.70;96.40
9006;DHT22;62284;50.702;7.140;2022-11-21T15:53:49;9.70;96.70
9006;DHT22;62284;50.702;7.140;2022-11-21T15:56:18;9.70;96.80
9006;DHT22;62284;50.702;7.140;2022-11-21T15:58:47;9.70;96.80
9006;DHT22;62284;50.702;7.140;2022-11-21T16:01:15;9.70;97.20
9006;DHT22;62284;50.702;7.140;2022-11-21T16:03:45;9.50;97.50
9006;DHT22;62284;50.702;7.140;2022-11-21T16:06:13;9.60;97.70
9006;DHT22;62284;50.702;7.140;2022-11-21T16:08:40;9.60;97.50
9006;DHT22;62284;50.702;7.140;2022-11-21T16:11:12;9.60;97.50
9006;DHT22;62284;50.702;7.140;2022-11-21T16:13:41;9.60;97.60
9006;DHT22;62284;50.702;7.140;2022-11-21T16:16:10;9.50;97.60
9006;DHT22;62284;50.702;7.140;2022-11-21T16:18:37;9.60;97.90
9006;DHT22;62284;50.702;7.140;2022-11-21T16:21:06;9.60;97.70
9006;DHT22;62284;50.702;7.140;2022-11-21T16:23:33;9.50;97.80
9006;DHT22;62284;50.702;7.140;2022-11-21T16:26:00;9.50;98.20
9006;DHT22;62284;50.702;7.140;2022-11-21T16:28:27;9.50;97.80
9006;DHT22;62284;50.702;7.140;2022-11-21T16:30:56;9.60;97.90
9006;DHT22;62284;50.702;7.140;2022-11-21T16:33:23;9.60;98.20
9006;DHT22;62284;50.702;7.140;2022-11-21T16:35:50;9.50;98.00